sensor_id;sensor_type;location;lat;lon;timestamp;P1;durP1;ratioP1;P2;durP2;ratioP2
20976;SDS011;10647;51.016;3.720;2023-02-28T00:00:26;10.80;;;5.20;;
20976;SDS011;10647;51.016;3.720;2023-02-28T00:02:54;9.63;;;4.80;;
20976;SDS011;10647;51.016;3.720;2023-02-28T00:05:23;13.07;;;5.30;;
20976;SDS011;10647;51.016;3.720;2023-02-28T00:07:53;9.17;;;4.80;;
20976;SDS011;10647;51.016;3.720;2023-02-28T00:10:22;6.47;;;4.47;;
20976;SDS011;10647;51.016;3.720;2023-02-28T00:12:52;12.67;;;5.13;;
20976;SDS011;10647;51.016;3.720;2023-02-28T00:15:23;9.33;;;4.97;;
20976;SDS011;10647;51.016;3.720;2023-02-28T00:17:56;9.53;;;5.40;;
20976;SDS011;10647;51.016;3.720;2023-02-28T00:20:24;8.43;;;5.27;;
20976;SDS011;10647;51.016;3.720;2023-02-28T00:22:58;10.93;;;5.20;;
20976;SDS011;10647;51.016;3.720;2023-02-28T00:25:25;11.37;;;5.73;;
20976;SDS011;10647;51.016;3.720;2023-02-28T00:27:53;9.53;;;5.47;;
20976;SDS011;10647;51.016;3.720;2023-02-28T00:33:13;10.40;;;5.87;;
20976;SDS011;10647;51.016;3.720;2023-02-28T00:35:41;8.87;;;5.87;;
20976;SDS011;10647;51.016;3.720;2023-02-28T00:38:11;11.00;;;5.87;;
20976;SDS011;10647;51.016;3.720;2023-02-28T00:40:43;11.07;;;5.23;;
20976;SDS011;10647;51.016;3.720;2023-02-28T00:43:10;10.20;;;6.13;;
20976;SDS011;10647;51.016;3.720;2023-02-28T00:45:38;11.73;;;5.73;;
20976;SDS011;10647;51.016;3.720;2023-02-28T00:48:05;12.40;;;5.70;;
20976;SDS011;10647;51.016;3.720;2023-02-28T00:50:33;9.37;;;5.90;;
20976;SDS011;10647;51.016;3.720;2023-02-28T00:53:01;12.23;;;5.67;;
20976;SDS011;10647;51.016;3.720;2023-02-28T00:58:16;10.17;;;5.97;;
20976;SDS011;10647;51.016;3.720;2023-02-28T01:00:45;11.50;;;5.90;;
20976;SDS011;10647;51.016;3.720;2023-02-28T01:03:15;10.47;;;5.67;;
20976;SDS011;10647;51.016;3.720;2023-02-28T01:06:04;12.13;;;6.50;;
20976;SDS011;10647;51.016;3.720;2023-02-28T01:08:32;12.90;;;6.50;;
20976;SDS011;10647;51.016;3.720;2023-02-28T01:11:09;10.50;;;6.47;;
20976;SDS011;10647;51.016;3.720;2023-02-28T01:13:50;10.43;;;5.50;;
20976;SDS011;10647;51.016;3.720;2023-02-28T01:16:23;14.10;;;6.67;;
20976;SDS011;10647;51.016;3.720;2023-02-28T01:18:52;12.80;;;6.70;;
20976;SDS011;10647;51.016;3.720;2023-02-28T01:21:20;12.67;;;6.33;;
20976;SDS011;10647;51.016;3.720;2023-02-28T01:23:51;13.60;;;6.10;;
20976;SDS011;10647;51.016;3.720;2023-02-28T01:26:20;10.77;;;6.10;;
20976;SDS011;10647;51.016;3.720;2023-02-28T01:28:49;13.83;;;5.93;;
20976;SDS011;10647;51.016;3.720;2023-02-28T01:31:19;10.97;;;6.30;;
20976;SDS011;10647;51.016;3.720;2023-02-28T01:33:48;13.50;;;6.10;;
20976;SDS011;10647;51.016;3.720;2023-02-28T01:36:18;11.73;;;6.30;;
20976;SDS011;10647;51.016;3.720;2023-02-28T01:38:47;14.00;;;7.13;;
20976;SDS011;10647;51.016;3.720;2023-02-28T01:41:17;12.83;;;6.77;;
20976;SDS011;10647;51.016;3.720;2023-02-28T01:46:50;12.73;;;6.47;;
20976;SDS011;10647;51.016;3.720;2023-02-28T01:49:18;12.83;;;6.47;;
20976;SDS011;10647;51.016;3.720;2023-02-28T01:54:33;9.63;;;6.30;;
20976;SDS011;10647;51.016;3.720;2023-02-28T01:57:06;11.10;;;6.80;;
20976;SDS011;10647;51.016;3.720;2023-02-28T01:59:48;12.37;;;6.87;;
20976;SDS011;10647;51.016;3.720;2023-02-28T02:02:31;11.50;;;7.30;;
20976;SDS011;10647;51.016;3.720;2023-02-28T02:05:00;10.27;;;6.53;;
20976;SDS011;10647;51.016;3.720;2023-02-28T02:07:29;12.07;;;6.57;;
20976;SDS011;10647;51.016;3.720;2023-02-28T02:10:05;15.13;;;6.67;;
20976;SDS011;10647;51.016;3.720;2023-02-28T02:12:42;9.80;;;6.40;;
20976;SDS011;10647;51.016;3.720;2023-02-28T02:15:19;11.03;;;6.50;;
20976;SDS011;10647;51.016;3.720;2023-02-28T02:18:00;13.73;;;6.87;;
20976;SDS011;10647;51.016;3.720;2023-02-28T02:20:54;12.17;;;6.63;;
20976;SDS011;10647;51.016;3.720;2023-02-28T02:23:33;10.27;;;6.67;;
20976;SDS011;10647;51.016;3.720;2023-02-28T02:28:58;13.27;;;7.10;;
20976;SDS011;10647;51.016;3.720;2023-02-28T02:34:28;12.70;;;6.70;;
20976;SDS011;10647;51.016;3.720;2023-02-28T02:40:18;12.23;;;7.23;;
20976;SDS011;10647;51.016;3.720;2023-02-28T02:43:11;12.57;;;7.10;;
20976;SDS011;10647;51.016;3.720;2023-02-28T02:45:45;12.93;;;7.40;;
20976;SDS011;10647;51.016;3.720;2023-02-28T02:48:18;13.47;;;6.90;;
20976;SDS011;10647;51.016;3.720;2023-02-28T02:50:49;12.00;;;6.40;;
20976;SDS011;10647;51.016;3.720;2023-02-28T02:53:21;12.20;;;6.80;;
20976;SDS011;10647;51.016;3.720;2023-02-28T02:55:50;13.77;;;6.63;;
20976;SDS011;10647;51.016;3.720;2023-02-28T03:01:01;11.93;;;6.37;;
20976;SDS011;10647;51.016;3.720;2023-02-28T03:03:31;16.97;;;6.47;;
20976;SDS011;10647;51.016;3.720;2023-02-28T03:06:00;13.47;;;6.70;;
20976;SDS011;10647;51.016;3.720;2023-02-28T03:08:32;13.77;;;6.87;;
20976;SDS011;10647;51.016;3.720;2023-02-28T03:11:03;11.77;;;6.43;;
20976;SDS011;10647;51.016;3.720;2023-02-28T03:22:03;13.20;;;6.57;;
20976;SDS011;10647;51.016;3.720;2023-02-28T03:24:54;11.87;;;6.43;;
20976;SDS011;10647;51.016;3.720;2023-02-28T03:27:23;12.33;;;7.00;;
20976;SDS011;10647;51.016;3.720;2023-02-28T03:35:38;11.17;;;6.47;;
20976;SDS011;10647;51.016;3.720;2023-02-28T03:38:14;9.60;;;6.37;;
20976;SDS011;10647;51.016;3.720;2023-02-28T03:41:12;13.73;;;7.50;;
20976;SDS011;10647;51.016;3.720;2023-02-28T03:44:09;12.20;;;6.77;;
20976;SDS011;10647;51.016;3.720;2023-02-28T03:46:44;12.80;;;6.93;;
20976;SDS011;10647;51.016;3.720;2023-02-28T03:49:32;13.43;;;7.00;;
20976;SDS011;10647;51.016;3.720;2023-02-28T03:52:05;15.20;;;7.23;;
20976;SDS011;10647;51.016;3.720;2023-02-28T03:54:36;11.83;;;6.63;;
20976;SDS011;10647;51.016;3.720;2023-02-28T03:57:24;13.23;;;6.67;;
20976;SDS011;10647;51.016;3.720;2023-02-28T03:59:57;13.83;;;7.20;;
20976;SDS011;10647;51.016;3.720;2023-02-28T04:05:44;11.47;;;6.20;;
20976;SDS011;10647;51.016;3.720;2023-02-28T04:08:12;11.77;;;7.10;;
20976;SDS011;10647;51.016;3.720;2023-02-28T04:10:41;12.87;;;7.07;;
20976;SDS011;10647;51.016;3.720;2023-02-28T04:13:11;11.60;;;7.00;;
20976;SDS011;10647;51.016;3.720;2023-02-28T04:15:40;11.50;;;6.80;;
20976;SDS011;10647;51.016;3.720;2023-02-28T04:18:07;13.07;;;6.67;;
20976;SDS011;10647;51.016;3.720;2023-02-28T04:20:37;12.20;;;7.67;;
20976;SDS011;10647;51.016;3.720;2023-02-28T04:23:05;16.97;;;7.17;;
20976;SDS011;10647;51.016;3.720;2023-02-28T04:25:33;15.00;;;7.67;;
20976;SDS011;10647;51.016;3.720;2023-02-28T04:28:00;11.10;;;7.17;;
20976;SDS011;10647;51.016;3.720;2023-02-28T04:30:30;15.93;;;7.23;;
20976;SDS011;10647;51.016;3.720;2023-02-28T04:32:58;13.07;;;7.30;;
20976;SDS011;10647;51.016;3.720;2023-02-28T04:35:29;13.90;;;7.30;;
20976;SDS011;10647;51.016;3.720;2023-02-28T04:37:56;12.77;;;7.03;;
20976;SDS011;10647;51.016;3.720;2023-02-28T04:40:27;12.97;;;7.23;;
20976;SDS011;10647;51.016;3.720;2023-02-28T04:42:57;13.43;;;6.90;;
20976;SDS011;10647;51.016;3.720;2023-02-28T04:47:57;15.60;;;7.17;;
20976;SDS011;10647;51.016;3.720;2023-02-28T04:50:25;16.50;;;7.70;;
20976;SDS011;10647;51.016;3.720;2023-02-28T04:52:56;16.70;;;7.50;;
20976;SDS011;10647;51.016;3.720;2023-02-28T04:55:23;13.10;;;7.00;;
20976;SDS011;10647;51.016;3.720;2023-02-28T04:57:52;14.37;;;7.57;;
20976;SDS011;10647;51.016;3.720;2023-02-28T05:00:21;14.40;;;7.17;;
20976;SDS011;10647;51.016;3.720;2023-02-28T05:02:49;10.87;;;6.70;;
20976;SDS011;10647;51.016;3.720;2023-02-28T05:05:17;12.73;;;7.43;;
20976;SDS011;10647;51.016;3.720;2023-02-28T05:07:44;13.60;;;7.77;;
20976;SDS011;10647;51.016;3.720;2023-02-28T05:10:12;19.87;;;6.97;;
20976;SDS011;10647;51.016;3.720;2023-02-28T05:12:39;14.53;;;7.03;;
20976;SDS011;10647;51.016;3.720;2023-02-28T05:15:08;15.70;;;7.27;;
20976;SDS011;10647;51.016;3.720;2023-02-28T05:17:41;14.53;;;6.80;;
20976;SDS011;10647;51.016;3.720;2023-02-28T05:22:49;13.23;;;6.80;;
20976;SDS011;10647;51.016;3.720;2023-02-28T05:25:19;13.93;;;6.77;;
20976;SDS011;10647;51.016;3.720;2023-02-28T05:27:50;14.60;;;6.67;;
20976;SDS011;10647;51.016;3.720;2023-02-28T05:30:19;16.03;;;7.10;;
20976;SDS011;10647;51.016;3.720;2023-02-28T05:32:49;16.17;;;7.20;;
20976;SDS011;10647;51.016;3.720;2023-02-28T05:40:38;13.53;;;7.20;;
20976;SDS011;10647;51.016;3.720;2023-02-28T05:43:07;15.67;;;7.30;;
20976;SDS011;10647;51.016;3.720;2023-02-28T05:45:37;11.00;;;6.60;;
20976;SDS011;10647;51.016;3.720;2023-02-28T05:48:05;13.90;;;6.77;;
20976;SDS011;10647;51.016;3.720;2023-02-28T05:50:32;13.50;;;6.83;;
20976;SDS011;10647;51.016;3.720;2023-02-28T05:53:06;15.30;;;6.57;;
20976;SDS011;10647;51.016;3.720;2023-02-28T05:55:35;11.07;;;6.57;;
20976;SDS011;10647;51.016;3.720;2023-02-28T05:58:09;10.53;;;6.43;;
20976;SDS011;10647;51.016;3.720;2023-02-28T06:00:36;13.57;;;6.53;;
20976;SDS011;10647;51.016;3.720;2023-02-28T06:03:04;14.00;;;7.17;;
20976;SDS011;10647;51.016;3.720;2023-02-28T06:05:31;14.80;;;7.20;;
20976;SDS011;10647;51.016;3.720;2023-02-28T06:07:59;15.43;;;7.10;;
20976;SDS011;10647;51.016;3.720;2023-02-28T06:10:27;13.47;;;6.53;;
20976;SDS011;10647;51.016;3.720;2023-02-28T06:12:54;17.07;;;7.27;;
20976;SDS011;10647;51.016;3.720;2023-02-28T06:15:22;12.40;;;7.30;;
20976;SDS011;10647;51.016;3.720;2023-02-28T06:17:49;11.40;;;6.83;;
20976;SDS011;10647;51.016;3.720;2023-02-28T06:20:18;12.13;;;6.33;;
20976;SDS011;10647;51.016;3.720;2023-02-28T06:22:45;12.00;;;6.90;;
20976;SDS011;10647;51.016;3.720;2023-02-28T06:25:13;18.30;;;6.93;;
20976;SDS011;10647;51.016;3.720;2023-02-28T06:27:40;10.33;;;6.00;;
20976;SDS011;10647;51.016;3.720;2023-02-28T06:30:09;15.17;;;6.03;;
20976;SDS011;10647;51.016;3.720;2023-02-28T06:32:41;13.30;;;6.70;;
20976;SDS011;10647;51.016;3.720;2023-02-28T06:35:11;15.37;;;7.20;;
20976;SDS011;10647;51.016;3.720;2023-02-28T06:37:39;15.23;;;6.97;;
20976;SDS011;10647;51.016;3.720;2023-02-28T06:40:07;15.23;;;6.73;;
20976;SDS011;10647;51.016;3.720;2023-02-28T06:42:36;14.47;;;6.80;;
20976;SDS011;10647;51.016;3.720;2023-02-28T06:45:03;12.40;;;6.97;;
20976;SDS011;10647;51.016;3.720;2023-02-28T06:47:33;12.20;;;6.67;;
20976;SDS011;10647;51.016;3.720;2023-02-28T06:50:02;13.47;;;6.67;;
20976;SDS011;10647;51.016;3.720;2023-02-28T06:52:31;15.73;;;6.70;;
20976;SDS011;10647;51.016;3.720;2023-02-28T06:55:00;15.73;;;7.13;;
20976;SDS011;10647;51.016;3.720;2023-02-28T06:57:29;15.53;;;7.50;;
20976;SDS011;10647;51.016;3.720;2023-02-28T06:59:58;20.83;;;7.40;;
20976;SDS011;10647;51.016;3.720;2023-02-28T07:02:30;16.23;;;7.10;;
20976;SDS011;10647;51.016;3.720;2023-02-28T07:04:59;16.33;;;7.00;;
20976;SDS011;10647;51.016;3.720;2023-02-28T07:07:32;16.03;;;7.07;;
20976;SDS011;10647;51.016;3.720;2023-02-28T07:10:03;22.13;;;7.23;;
20976;SDS011;10647;51.016;3.720;2023-02-28T07:12:30;15.83;;;6.77;;
20976;SDS011;10647;51.016;3.720;2023-02-28T07:14:59;18.53;;;6.90;;
20976;SDS011;10647;51.016;3.720;2023-02-28T07:17:26;14.77;;;6.63;;
20976;SDS011;10647;51.016;3.720;2023-02-28T07:19:54;11.33;;;5.83;;
20976;SDS011;10647;51.016;3.720;2023-02-28T07:22:22;20.77;;;6.43;;
20976;SDS011;10647;51.016;3.720;2023-02-28T07:24:50;9.97;;;6.00;;
20976;SDS011;10647;51.016;3.720;2023-02-28T07:27:18;13.93;;;6.30;;
20976;SDS011;10647;51.016;3.720;2023-02-28T07:29:47;16.90;;;6.30;;
20976;SDS011;10647;51.016;3.720;2023-02-28T07:32:14;16.77;;;6.30;;
20976;SDS011;10647;51.016;3.720;2023-02-28T07:34:42;18.73;;;6.63;;
20976;SDS011;10647;51.016;3.720;2023-02-28T07:37:10;11.67;;;6.60;;
20976;SDS011;10647;51.016;3.720;2023-02-28T07:39:37;11.87;;;6.07;;
20976;SDS011;10647;51.016;3.720;2023-02-28T07:42:06;28.40;;;6.57;;
20976;SDS011;10647;51.016;3.720;2023-02-28T07:44:36;10.10;;;6.00;;
20976;SDS011;10647;51.016;3.720;2023-02-28T07:47:08;14.30;;;5.50;;
20976;SDS011;10647;51.016;3.720;2023-02-28T07:49:38;12.43;;;6.40;;
20976;SDS011;10647;51.016;3.720;2023-02-28T07:52:06;12.67;;;7.40;;
20976;SDS011;10647;51.016;3.720;2023-02-28T07:54:34;13.73;;;6.10;;
20976;SDS011;10647;51.016;3.720;2023-02-28T07:59:48;15.30;;;6.33;;
20976;SDS011;10647;51.016;3.720;2023-02-28T08:02:17;12.90;;;4.80;;
20976;SDS011;10647;51.016;3.720;2023-02-28T08:07:19;23.30;;;12.40;;
20976;SDS011;10647;51.016;3.720;2023-02-28T08:09:47;14.30;;;5.93;;
20976;SDS011;10647;51.016;3.720;2023-02-28T08:12:14;13.27;;;5.80;;
20976;SDS011;10647;51.016;3.720;2023-02-28T08:14:42;13.30;;;5.77;;
20976;SDS011;10647;51.016;3.720;2023-02-28T08:17:10;12.87;;;5.83;;
20976;SDS011;10647;51.016;3.720;2023-02-28T08:19:38;9.87;;;5.80;;
20976;SDS011;10647;51.016;3.720;2023-02-28T08:22:05;13.10;;;5.87;;
20976;SDS011;10647;51.016;3.720;2023-02-28T08:24:33;9.67;;;5.37;;
20976;SDS011;10647;51.016;3.720;2023-02-28T08:27:01;13.40;;;6.20;;
20976;SDS011;10647;51.016;3.720;2023-02-28T08:29:28;11.37;;;5.90;;
20976;SDS011;10647;51.016;3.720;2023-02-28T08:31:56;13.90;;;5.53;;
20976;SDS011;10647;51.016;3.720;2023-02-28T08:34:24;11.07;;;5.50;;
20976;SDS011;10647;51.016;3.720;2023-02-28T08:36:52;14.60;;;5.30;;
20976;SDS011;10647;51.016;3.720;2023-02-28T08:39:20;8.57;;;5.60;;
20976;SDS011;10647;51.016;3.720;2023-02-28T08:41:47;11.97;;;5.80;;
20976;SDS011;10647;51.016;3.720;2023-02-28T08:44:15;12.77;;;5.63;;
20976;SDS011;10647;51.016;3.720;2023-02-28T08:46:42;11.20;;;5.30;;
20976;SDS011;10647;51.016;3.720;2023-02-28T08:49:11;9.87;;;4.90;;
20976;SDS011;10647;51.016;3.720;2023-02-28T08:51:38;8.53;;;5.27;;
20976;SDS011;10647;51.016;3.720;2023-02-28T08:54:06;8.70;;;4.93;;
20976;SDS011;10647;51.016;3.720;2023-02-28T08:56:36;9.00;;;5.00;;
20976;SDS011;10647;51.016;3.720;2023-02-28T08:59:05;11.53;;;5.00;;
20976;SDS011;10647;51.016;3.720;2023-02-28T09:01:32;11.73;;;5.30;;
20976;SDS011;10647;51.016;3.720;2023-02-28T09:04:00;14.50;;;5.17;;
20976;SDS011;10647;51.016;3.720;2023-02-28T09:06:28;11.10;;;4.70;;
20976;SDS011;10647;51.016;3.720;2023-02-28T09:08:56;11.57;;;4.60;;
20976;SDS011;10647;51.016;3.720;2023-02-28T09:11:27;9.10;;;4.93;;
20976;SDS011;10647;51.016;3.720;2023-02-28T09:13:55;9.70;;;4.70;;
20976;SDS011;10647;51.016;3.720;2023-02-28T09:16:22;12.67;;;5.03;;
20976;SDS011;10647;51.016;3.720;2023-02-28T09:18:50;9.57;;;4.40;;
20976;SDS011;10647;51.016;3.720;2023-02-28T09:21:18;10.77;;;4.20;;
20976;SDS011;10647;51.016;3.720;2023-02-28T09:23:47;12.70;;;4.40;;
20976;SDS011;10647;51.016;3.720;2023-02-28T09:26:20;11.47;;;5.07;;
20976;SDS011;10647;51.016;3.720;2023-02-28T09:28:49;9.77;;;4.30;;
20976;SDS011;10647;51.016;3.720;2023-02-28T09:31:19;12.07;;;4.73;;
20976;SDS011;10647;51.016;3.720;2023-02-28T09:33:55;12.53;;;4.43;;
20976;SDS011;10647;51.016;3.720;2023-02-28T09:36:43;9.53;;;4.07;;
20976;SDS011;10647;51.016;3.720;2023-02-28T09:39:11;8.27;;;4.23;;
20976;SDS011;10647;51.016;3.720;2023-02-28T09:41:42;11.60;;;4.37;;
20976;SDS011;10647;51.016;3.720;2023-02-28T09:44:26;8.03;;;4.07;;
20976;SDS011;10647;51.016;3.720;2023-02-28T09:47:00;7.77;;;4.10;;
20976;SDS011;10647;51.016;3.720;2023-02-28T09:49:28;9.53;;;4.07;;
20976;SDS011;10647;51.016;3.720;2023-02-28T09:52:07;7.77;;;4.10;;
20976;SDS011;10647;51.016;3.720;2023-02-28T09:54:36;8.77;;;4.60;;
20976;SDS011;10647;51.016;3.720;2023-02-28T09:57:06;6.37;;;4.07;;
20976;SDS011;10647;51.016;3.720;2023-02-28T10:02:44;11.57;;;3.67;;
20976;SDS011;10647;51.016;3.720;2023-02-28T10:05:15;7.43;;;4.20;;
20976;SDS011;10647;51.016;3.720;2023-02-28T10:18:43;6.03;;;3.67;;
20976;SDS011;10647;51.016;3.720;2023-02-28T10:21:23;8.90;;;3.90;;
20976;SDS011;10647;51.016;3.720;2023-02-28T10:23:53;8.03;;;3.43;;
20976;SDS011;10647;51.016;3.720;2023-02-28T10:26:22;7.83;;;3.87;;
20976;SDS011;10647;51.016;3.720;2023-02-28T10:28:51;6.33;;;3.50;;
20976;SDS011;10647;51.016;3.720;2023-02-28T10:31:20;8.50;;;3.70;;
20976;SDS011;10647;51.016;3.720;2023-02-28T10:33:47;4.17;;;3.10;;
20976;SDS011;10647;51.016;3.720;2023-02-28T10:36:17;9.90;;;3.80;;
20976;SDS011;10647;51.016;3.720;2023-02-28T10:38:47;6.37;;;3.33;;
20976;SDS011;10647;51.016;3.720;2023-02-28T10:41:26;6.93;;;3.00;;
20976;SDS011;10647;51.016;3.720;2023-02-28T10:44:24;6.20;;;3.40;;
20976;SDS011;10647;51.016;3.720;2023-02-28T10:46:41;8.40;;;3.23;;
20976;SDS011;10647;51.016;3.720;2023-02-28T10:52:01;5.50;;;2.97;;
20976;SDS011;10647;51.016;3.720;2023-02-28T10:54:30;3.50;;;2.57;;
20976;SDS011;10647;51.016;3.720;2023-02-28T10:57:17;5.60;;;2.00;;
20976;SDS011;10647;51.016;3.720;2023-02-28T10:59:51;3.33;;;2.07;;
20976;SDS011;10647;51.016;3.720;2023-02-28T11:02:35;3.43;;;2.20;;
20976;SDS011;10647;51.016;3.720;2023-02-28T11:05:37;6.17;;;2.40;;
20976;SDS011;10647;51.016;3.720;2023-02-28T11:10:46;4.90;;;2.57;;
20976;SDS011;10647;51.016;3.720;2023-02-28T11:13:24;6.60;;;2.93;;
20976;SDS011;10647;51.016;3.720;2023-02-28T11:15:59;6.97;;;2.53;;
20976;SDS011;10647;51.016;3.720;2023-02-28T11:21:33;5.87;;;2.50;;
20976;SDS011;10647;51.016;3.720;2023-02-28T11:26:51;9.13;;;2.87;;
20976;SDS011;10647;51.016;3.720;2023-02-28T11:29:21;6.83;;;3.10;;
20976;SDS011;10647;51.016;3.720;2023-02-28T11:34:42;7.93;;;2.80;;
20976;SDS011;10647;51.016;3.720;2023-02-28T11:37:13;5.67;;;2.27;;
20976;SDS011;10647;51.016;3.720;2023-02-28T11:39:45;4.07;;;2.33;;
20976;SDS011;10647;51.016;3.720;2023-02-28T11:42:35;4.97;;;2.90;;
20976;SDS011;10647;51.016;3.720;2023-02-28T11:48:02;5.43;;;2.07;;
20976;SDS011;10647;51.016;3.720;2023-02-28T11:50:46;3.23;;;1.90;;
20976;SDS011;10647;51.016;3.720;2023-02-28T12:05:44;3.70;;;2.07;;
20976;SDS011;10647;51.016;3.720;2023-02-28T12:14:42;5.10;;;2.43;;
20976;SDS011;10647;51.016;3.720;2023-02-28T12:17:25;5.53;;;1.97;;
20976;SDS011;10647;51.016;3.720;2023-02-28T12:25:43;7.53;;;2.07;;
20976;SDS011;10647;51.016;3.720;2023-02-28T12:28:43;3.33;;;2.13;;
20976;SDS011;10647;51.016;3.720;2023-02-28T12:31:23;4.97;;;2.27;;
20976;SDS011;10647;51.016;3.720;2023-02-28T12:33:53;2.60;;;1.43;;
20976;SDS011;10647;51.016;3.720;2023-02-28T12:36:22;4.57;;;2.10;;
20976;SDS011;10647;51.016;3.720;2023-02-28T12:39:07;4.90;;;2.17;;
20976;SDS011;10647;51.016;3.720;2023-02-28T12:44:35;5.50;;;2.07;;
20976;SDS011;10647;51.016;3.720;2023-02-28T12:47:23;2.50;;;1.60;;
20976;SDS011;10647;51.016;3.720;2023-02-28T12:49:58;6.13;;;2.03;;
20976;SDS011;10647;51.016;3.720;2023-02-28T12:58:28;3.17;;;2.00;;
20976;SDS011;10647;51.016;3.720;2023-02-28T13:03:47;3.43;;;2.13;;
20976;SDS011;10647;51.016;3.720;2023-02-28T13:09:20;3.63;;;2.10;;
20976;SDS011;10647;51.016;3.720;2023-02-28T13:11:49;4.53;;;2.00;;
20976;SDS011;10647;51.016;3.720;2023-02-28T13:14:23;3.13;;;1.97;;
20976;SDS011;10647;51.016;3.720;2023-02-28T13:17:01;3.33;;;2.00;;
20976;SDS011;10647;51.016;3.720;2023-02-28T13:19:59;7.97;;;2.00;;
20976;SDS011;10647;51.016;3.720;2023-02-28T13:22:18;3.27;;;2.27;;
20976;SDS011;10647;51.016;3.720;2023-02-28T13:24:56;2.62;;;1.62;;
20976;SDS011;10647;51.016;3.720;2023-02-28T13:27:31;4.05;;;1.92;;
20976;SDS011;10647;51.016;3.720;2023-02-28T13:38:50;4.42;;;2.17;;
20976;SDS011;10647;51.016;3.720;2023-02-28T14:01:03;3.75;;;2.20;;
20976;SDS011;10647;51.016;3.720;2023-02-28T14:06:56;3.17;;;1.72;;
20976;SDS011;10647;51.016;3.720;2023-02-28T14:09:27;4.92;;;1.70;;
20976;SDS011;10647;51.016;3.720;2023-02-28T14:17:42;7.97;;;3.15;;
20976;SDS011;10647;51.016;3.720;2023-02-28T14:20:16;10.13;;;2.72;;
20976;SDS011;10647;51.016;3.720;2023-02-28T14:29:30;4.47;;;2.22;;
20976;SDS011;10647;51.016;3.720;2023-02-28T14:37:39;6.55;;;2.37;;
20976;SDS011;10647;51.016;3.720;2023-02-28T14:40:14;2.98;;;2.40;;
20976;SDS011;10647;51.016;3.720;2023-02-28T14:42:46;3.83;;;2.20;;
20976;SDS011;10647;51.016;3.720;2023-02-28T14:45:19;8.58;;;2.75;;
20976;SDS011;10647;51.016;3.720;2023-02-28T14:48:10;4.35;;;2.70;;
20976;SDS011;10647;51.016;3.720;2023-02-28T14:50:58;4.60;;;2.50;;
20976;SDS011;10647;51.016;3.720;2023-02-28T14:53:36;3.55;;;2.55;;
20976;SDS011;10647;51.016;3.720;2023-02-28T14:55:56;3.55;;;2.40;;
20976;SDS011;10647;51.016;3.720;2023-02-28T14:58:31;3.62;;;2.30;;
20976;SDS011;10647;51.016;3.720;2023-02-28T15:00:57;4.83;;;2.20;;
20976;SDS011;10647;51.016;3.720;2023-02-28T15:03:37;3.37;;;2.15;;
20976;SDS011;10647;51.016;3.720;2023-02-28T15:06:16;6.45;;;2.85;;
20976;SDS011;10647;51.016;3.720;2023-02-28T15:08:46;5.67;;;2.50;;
20976;SDS011;10647;51.016;3.720;2023-02-28T15:11:15;3.22;;;2.37;;
20976;SDS011;10647;51.016;3.720;2023-02-28T15:13:45;6.58;;;2.55;;
20976;SDS011;10647;51.016;3.720;2023-02-28T15:16:25;6.47;;;2.65;;
20976;SDS011;10647;51.016;3.720;2023-02-28T15:18:59;5.30;;;2.52;;
20976;SDS011;10647;51.016;3.720;2023-02-28T15:21:35;5.95;;;3.35;;
20976;SDS011;10647;51.016;3.720;2023-02-28T15:24:06;5.85;;;2.62;;
20976;SDS011;10647;51.016;3.720;2023-02-28T15:29:19;6.83;;;3.02;;
20976;SDS011;10647;51.016;3.720;2023-02-28T15:34:21;3.33;;;2.50;;
20976;SDS011;10647;51.016;3.720;2023-02-28T15:36:50;5.62;;;2.70;;
20976;SDS011;10647;51.016;3.720;2023-02-28T15:39:19;5.42;;;2.87;;
20976;SDS011;10647;51.016;3.720;2023-02-28T15:41:48;3.77;;;2.55;;
20976;SDS011;10647;51.016;3.720;2023-02-28T15:47:11;8.73;;;3.10;;
20976;SDS011;10647;51.016;3.720;2023-02-28T15:49:53;3.80;;;2.50;;
20976;SDS011;10647;51.016;3.720;2023-02-28T15:52:39;4.70;;;3.00;;
20976;SDS011;10647;51.016;3.720;2023-02-28T15:55:24;4.27;;;2.97;;
20976;SDS011;10647;51.016;3.720;2023-02-28T15:57:56;4.87;;;3.10;;
20976;SDS011;10647;51.016;3.720;2023-02-28T16:00:27;4.20;;;3.40;;
20976;SDS011;10647;51.016;3.720;2023-02-28T16:02:55;6.13;;;2.83;;
20976;SDS011;10647;51.016;3.720;2023-02-28T16:05:29;5.57;;;2.20;;
20976;SDS011;10647;51.016;3.720;2023-02-28T16:08:11;5.50;;;3.23;;
20976;SDS011;10647;51.016;3.720;2023-02-28T16:10:54;6.33;;;3.03;;
20976;SDS011;10647;51.016;3.720;2023-02-28T16:13:21;7.23;;;2.93;;
20976;SDS011;10647;51.016;3.720;2023-02-28T16:15:52;8.13;;;3.30;;
20976;SDS011;10647;51.016;3.720;2023-02-28T16:18:20;9.03;;;3.47;;
20976;SDS011;10647;51.016;3.720;2023-02-28T16:20:47;8.70;;;3.20;;
20976;SDS011;10647;51.016;3.720;2023-02-28T16:23:17;4.20;;;2.90;;
20976;SDS011;10647;51.016;3.720;2023-02-28T16:25:46;8.00;;;3.33;;
20976;SDS011;10647;51.016;3.720;2023-02-28T16:31:03;5.00;;;3.17;;
20976;SDS011;10647;51.016;3.720;2023-02-28T16:33:32;6.43;;;3.40;;
20976;SDS011;10647;51.016;3.720;2023-02-28T16:36:00;6.47;;;3.13;;
20976;SDS011;10647;51.016;3.720;2023-02-28T16:38:28;6.13;;;3.40;;
20976;SDS011;10647;51.016;3.720;2023-02-28T16:40:56;7.17;;;2.87;;
20976;SDS011;10647;51.016;3.720;2023-02-28T16:43:26;10.07;;;3.87;;
20976;SDS011;10647;51.016;3.720;2023-02-28T16:45:55;6.60;;;3.37;;
20976;SDS011;10647;51.016;3.720;2023-02-28T16:48:28;7.80;;;3.57;;
20976;SDS011;10647;51.016;3.720;2023-02-28T16:50:56;7.70;;;3.40;;
20976;SDS011;10647;51.016;3.720;2023-02-28T16:53:24;5.73;;;3.60;;
20976;SDS011;10647;51.016;3.720;2023-02-28T16:55:51;6.00;;;3.73;;
20976;SDS011;10647;51.016;3.720;2023-02-28T16:58:19;5.07;;;3.20;;
20976;SDS011;10647;51.016;3.720;2023-02-28T17:00:48;5.40;;;3.50;;
20976;SDS011;10647;51.016;3.720;2023-02-28T17:05:50;6.93;;;3.53;;
20976;SDS011;10647;51.016;3.720;2023-02-28T17:08:18;5.30;;;3.77;;
20976;SDS011;10647;51.016;3.720;2023-02-28T17:10:46;7.37;;;3.07;;
20976;SDS011;10647;51.016;3.720;2023-02-28T17:13:25;7.67;;;3.73;;
20976;SDS011;10647;51.016;3.720;2023-02-28T17:15:54;6.53;;;3.60;;
20976;SDS011;10647;51.016;3.720;2023-02-28T17:18:22;7.27;;;4.30;;
20976;SDS011;10647;51.016;3.720;2023-02-28T17:20:49;7.07;;;4.10;;
20976;SDS011;10647;51.016;3.720;2023-02-28T17:23:17;8.50;;;3.87;;
20976;SDS011;10647;51.016;3.720;2023-02-28T17:25:45;10.00;;;3.87;;
20976;SDS011;10647;51.016;3.720;2023-02-28T17:28:14;6.83;;;4.30;;
20976;SDS011;10647;51.016;3.720;2023-02-28T17:30:42;10.90;;;4.20;;
20976;SDS011;10647;51.016;3.720;2023-02-28T17:33:17;6.50;;;4.00;;
20976;SDS011;10647;51.016;3.720;2023-02-28T17:35:45;6.93;;;4.10;;
20976;SDS011;10647;51.016;3.720;2023-02-28T17:38:16;8.37;;;4.10;;
20976;SDS011;10647;51.016;3.720;2023-02-28T17:40:53;9.07;;;4.50;;
20976;SDS011;10647;51.016;3.720;2023-02-28T17:43:26;7.83;;;4.43;;
20976;SDS011;10647;51.016;3.720;2023-02-28T17:45:54;8.73;;;4.40;;
20976;SDS011;10647;51.016;3.720;2023-02-28T17:48:22;7.20;;;4.10;;
20976;SDS011;10647;51.016;3.720;2023-02-28T17:50:49;7.67;;;4.53;;
20976;SDS011;10647;51.016;3.720;2023-02-28T17:53:20;7.73;;;4.73;;
20976;SDS011;10647;51.016;3.720;2023-02-28T17:55:49;6.43;;;4.30;;
20976;SDS011;10647;51.016;3.720;2023-02-28T17:58:17;7.67;;;4.60;;
20976;SDS011;10647;51.016;3.720;2023-02-28T18:00:44;7.33;;;4.77;;
20976;SDS011;10647;51.016;3.720;2023-02-28T18:03:13;7.30;;;5.07;;
20976;SDS011;10647;51.016;3.720;2023-02-28T18:05:41;9.47;;;4.70;;
20976;SDS011;10647;51.016;3.720;2023-02-28T18:08:09;7.93;;;4.90;;
20976;SDS011;10647;51.016;3.720;2023-02-28T18:10:38;8.47;;;4.27;;
20976;SDS011;10647;51.016;3.720;2023-02-28T18:13:06;7.07;;;4.60;;
20976;SDS011;10647;51.016;3.720;2023-02-28T18:15:34;9.77;;;4.63;;